Station: Georgetown Airport  

  Atmospheric Gas Attenuation - ITU Rec 676-11   ----------------- dB/100km -----------------
Date Time Temp RH % AH g/m3 Dew Point Wind Direction Speed kph Gust kph Barometer mB Rainfall Since 9am 24GHz 47GHz 76GHz 122GHz 134GHz 241GHz
08/05 12:40 29.1 45 13 16 30 33 1013.8 0 28.0 28.2 48.5 127.8 132.1 458.3
08/05 12:30 29.8 45 13.5 16.6 24 37 1013.7 0 29.0 28.7 49.9 131.7 137.1 475.9
08/05 12:20 29.5 44 12.99 16 26 32 1013.9 0 27.9 28.1 48.2 127.1 131.3 455.6
08/05 12:10 29.1 46 13.29 16.6 20 22 1014.1 0 28.6 28.7 49.6 130.8 135.8 471.0
08/05 12:00 29.3 46 13.43 16.5 20 35 1014.2 0 28.9 28.8 50.0 131.9 137.2 476.0
08/05 11:50 29.4 47 13.8 16.9 26 30 1014.4 0 29.6 29.4 51.4 135.5 141.7 491.7
08/05 11:40 29 48 13.79 16.9 20 28 1014.7 0 29.6 29.5 51.6 136.1 142.3 493.8
08/05 11:30 28 50 13.6 16.6 24 41 1014.8 0 29.3 29.5 51.5 135.9 141.7 491.6
08/05 11:20 28.4 51 14.18 17.3 19 26 1015 0 30.5 30.3 53.5 141.3 148.4 515.2
08/05 11:10 27.7 51 13.64 16.9 17 22 1015.2 0 29.4 29.7 51.9 136.9 142.8 495.4
08/05 11:00 27.5 51 13.49 16.5 26 41 1015.3 0 29.1 29.5 51.4 135.7 141.2 490.0
08/05 10:50 28.1 52 14.22 17.3 17 32 1015.5 0 30.6 30.5 53.9 142.3 149.6 519.2
08/05 10:40 27.5 52 13.76 16.8 22 30 1015.5 0 29.7 30.0 52.5 138.5 144.7 502.2
08/05 10:30 27 53 13.64 16.6 22 37 1015.6 0 29.5 30.0 52.4 138.1 144.1 500.0
08/05 10:20 26.9 53 13.57 16.5 24 33 1015.6 0 29.3 29.9 52.2 137.6 143.4 497.5
08/05 10:10 26.6 54 13.59 16.5 28 39 1015.6 0 29.4 30.0 52.4 138.3 144.2 500.3
08/05 10:00 27.3 55 14.39 17.5 24 39 1015.5 0 31.0 31.1 55.2 145.6 153.4 532.3
08/05 09:50 27.1 56 14.49 17.6 20 33 1015.5 0 31.2 31.3 55.7 147.0 155.1 538.3
08/05 09:40 26.3 57 14.11 17.1 24 30 1015.5 0 30.5 31.0 54.7 144.4 151.6 526.1
08/05 09:30 26.3 58 14.36 17.4 22 43 1015.4 0 31.0 31.4 55.7 147.1 154.9 537.7
08/05 09:20 25.7 60 14.36 17.4 24 35 1015.4 0 31.1 31.6 56.2 148.2 156.2 541.8
08/05 09:10 25.7 60 14.36 17.4 24 35 1015.2 0 31.1 31.6 56.2 148.2 156.1 541.7
08/05 09:00 25.2 60 13.97 17.1 24 43 1015 0 30.3 31.1 54.9 144.8 151.9 526.7
08/05 08:50 24.9 62 14.19 17.1 20 26 1015 0 30.8 31.6 56.0 147.8 155.4 539.2
08/05 08:40 24.7 63 14.26 17.2 28 37 1015 0 30.9 31.8 56.4 149.0 156.8 543.9
08/05 08:30 24.6 65 14.63 17.6 17 26 1014.8 0 31.7 32.4 58.1 153.3 162.1 562.2
08/05 08:20 24.5 66 14.77 17.7 11 15 1014.9 0 32.0 32.7 58.7 155.1 164.2 569.8
08/05 08:10 24 68 14.79 17.7 11 13 1014.9 0 32.1 32.9 59.2 156.3 165.6 574.4
08/05 08:00 23.4 69 14.51 17.4 17 24 1014.7 0 31.6 32.7 58.4 154.3 162.9 565.1
08/05 07:50 22.9 72 14.71 17.6 17 22 1014.8 0 32.0 33.2 59.7 157.6 166.8 578.7
08/05 07:40 22.5 74 14.78 17.6 17 26 1014.7 0 32.2 33.5 60.3 159.2 168.7 585.1
08/05 07:30 22.2 76 14.92 17.8 15 26 1014.5 0 32.5 33.8 61.1 161.4 171.4 594.4
08/05 07:20 22 77 14.94 17.8 17 20 1014.6 0 32.6 33.9 61.4 162.1 172.1 597.0
08/05 07:10 21.8 77 14.77 17.6 17 20 1014.5 0 32.2 33.7 60.8 160.5 170.1 589.9
08/05 07:00 21.4 78 14.62 17.4 15 24 1014.4 0 32.0 33.6 60.4 159.6 168.8 585.4
08/05 06:50 21.2 79 14.64 17.4 15 26 1014.3 0 32.0 33.7 60.7 160.2 169.5 587.9
08/05 06:40 21 79 14.47 17.2 11 13 1014.1 0 31.7 33.5 60.1 158.6 167.5 580.7
08/05 06:30 21.2 78 14.45 17.2 13 30 1014 0 31.6 33.4 59.8 157.9 166.7 578.2
08/05 06:20 21.3 78 14.54 17.3 13 17 1013.9 0 31.8 33.5 60.1 158.8 167.8 581.9
08/05 06:10 21.4 78 14.62 17.4 17 19 1013.8 0 32.0 33.6 60.4 159.5 168.7 585.1
08/05 06:00 21.1 79 14.55 17.3 13 22 1013.7 0 31.8 33.6 60.3 159.3 168.4 583.8
08/05 05:50 20.5 82 14.59 17.3 9 11 1013.7 0 32.0 33.9 61.0 161.0 170.3 590.5
08/05 05:40 20 83 14.34 17 9 13 1013.6 0 31.5 33.6 60.3 159.1 167.7 581.5
08/05 05:30 19.2 85 14.01 16.6 6 9 1013.4 0 30.8 33.3 59.4 156.7 164.7 570.6
08/05 05:20 19.4 85 14.18 16.8 7 9 1013.5 0 31.2 33.6 60.0 158.4 166.7 577.8
08/05 05:10 18.7 87 13.93 16.5 0 2 1013.4 0 30.7 33.4 59.4 156.8 164.6 570.3
08/05 05:00 18.7 86 13.77 16.3 6 7 1013.1 0 30.4 33.1 58.7 154.9 162.2 561.9
08/05 04:50 19.1 85 13.93 16.5 7 9 1013.3 0 30.7 33.2 59.1 156.0 163.7 567.2
08/05 04:40 19.3 82 13.6 16.2 7 9 1013.2 0 29.9 32.5 57.5 151.7 158.5 549.0
08/05 04:30 19.4 82 13.68 16.2 9 11 1013.1 0 30.1 32.6 57.8 152.4 159.4 552.3
08/05 04:20 19.4 82 13.68 16.2 7 9 1013.2 0 30.1 32.7 57.8 152.4 159.4 552.3
08/05 04:10 19.3 82 13.6 16.2 7 9 1013.2 0 29.9 32.5 57.5 151.7 158.5 549.0
08/05 04:00 18.9 83 13.45 16 7 9 1012.9 0 29.7 32.4 57.1 150.7 157.1 544.2
08/05 03:50 18.8 83 13.37 15.9 7 7 1012.9 0 29.5 32.3 56.8 149.9 156.1 540.9
08/05 03:40 18.7 84 13.45 15.9 7 9 1012.7 0 29.7 32.5 57.2 151.0 157.5 545.5
08/05 03:30 18.8 84 13.53 16 7 9 1012.6 0 29.8 32.6 57.5 151.8 158.4 548.8
08/05 03:20 18.6 84 13.37 15.8 7 7 1012.8 0 29.5 32.4 57.0 150.3 156.5 542.2
08/05 03:10 18.3 85 13.29 15.7 7 9 1012.8 0 29.4 32.4 56.8 149.9 156.0 540.3
08/05 03:00 18.3 82 12.82 15.2 7 9 1012.7 0 28.4 31.5 54.8 144.4 149.2 516.7
08/05 02:50 18.7 81 12.97 15.4 7 7 1012.9 0 28.6 31.7 55.1 145.4 150.6 521.5
08/05 02:40 19.3 80 13.27 15.8 7 9 1012.9 0 29.2 32.0 56.0 147.8 153.7 532.4
08/05 02:30 19.2 80 13.19 15.7 9 13 1012.8 0 29.1 31.8 55.7 147.0 152.7 529.0
08/05 02:20 19 81 13.2 15.7 9 13 1012.9 0 29.1 31.9 55.9 147.5 153.3 530.9
08/05 02:10 18.6 82 13.05 15.5 9 11 1012.9 0 28.8 31.8 55.6 146.6 151.9 526.2
08/05 02:00 18.2 83 12.9 15.3 7 9 1012.9 0 28.5 31.7 55.2 145.6 150.6 521.4
08/05 01:50 18 84 12.9 15.3 7 9 1013.2 0 28.5 31.8 55.4 146.0 151.0 522.9
08/05 01:40 17.7 86 12.97 15.3 7 9 1013.2 0 28.7 32.0 55.9 147.4 152.6 528.5
08/05 01:30 17.3 86 12.67 14.9 6 7 1013.1 0 28.1 31.6 54.8 144.6 149.1 516.0
08/05 01:20 17.1 86 12.52 14.7 6 6 1013.4 0 27.8 31.5 54.3 143.2 147.3 509.9
08/05 01:10 17.6 85 12.75 15 0 0 1013.4 0 28.3 31.7 55.0 145.0 149.7 518.1
08/05 01:00 17.6 85 12.75 15 0 6 1013.4 0 28.3 31.7 55.0 145.0 149.7 518.1
08/05 00:50 17.6 84 12.6 14.9 4 6 1013.5 0 27.9 31.4 54.3 143.3 147.5 510.7
08/05 00:40 18 84 12.9 15.3 2 6 1013.5 0 28.5 31.8 55.4 146.0 151.0 523.0
08/05 00:30 17.7 83 12.52 14.8 0 6 1013.5 0 27.8 31.3 53.9 142.1 146.2 506.0
08/05 00:20 18 82 12.59 14.9 4 6 1013.1 0 27.9 31.2 54.0 142.4 146.6 507.4
08/05 00:10 18.1 83 12.82 15.2 2 6 1013.8 0 28.4 31.6 55.0 144.9 149.7 518.4
08/05 00:00 18.3 81 12.66 15 4 6 1013.7 0 28.0 31.3 54.1 142.7 147.0 509.1
07/05 23:50 18.9 79 12.8 15.2 6 6 1013.9 0 28.3 31.3 54.3 143.2 147.9 512.1
07/05 23:40 18.1 81 12.51 14.8 6 7 1013.9 0 27.7 31.1 53.6 141.3 145.3 503.0
07/05 23:30 18.5 80 12.66 15 6 7 1013.8 0 28.0 31.2 54.0 142.3 146.7 507.8
07/05 23:20 18.4 80 12.58 14.9 6 6 1013.9 0 27.8 31.1 53.7 141.6 145.7 504.5
07/05 23:10 17.9 79 12.06 14.2 6 6 1014 0 26.8 30.4 51.8 136.5 139.3 482.2
07/05 23:00 18.5 79 12.5 14.8 7 9 1013.8 0 27.7 30.9 53.3 140.5 144.4 499.9
07/05 22:50 18.4 79 12.42 14.7 7 7 1013.9 0 27.5 30.8 53.0 139.8 143.5 496.6
07/05 22:40 18.5 78 12.34 14.6 6 7 1014 0 27.3 30.7 52.6 138.7 142.2 492.1
07/05 22:30 19.1 77 12.62 15 7 9 1013.9 0 27.9 30.9 53.4 140.8 145.0 501.9
07/05 22:20 19.2 76 12.53 14.9 7 9 1014 0 27.7 30.8 53.0 139.6 143.5 496.9
07/05 22:10 19 77 12.55 14.9 0 0 1014.1 0 27.7 30.9 53.2 140.2 144.2 499.2
07/05 22:00 19 77 12.55 14.9 2 7 1014 0 27.7 30.9 53.2 140.2 144.2 499.2
07/05 21:50 18.9 77 12.47 14.8 6 7 1014.1 0 27.6 30.8 52.9 139.5 143.3 496.0
07/05 21:40 19.1 76 12.46 14.8 4 6 1014.1 0 27.5 30.7 52.7 139.0 142.7 494.2
07/05 21:30 19.6 75 12.66 15 6 9 1014 0 27.9 30.8 53.2 140.3 144.6 500.7
07/05 21:20 19.3 75 12.44 14.8 0 0 1014.1 0 27.5 30.6 52.5 138.4 142.1 491.9
07/05 21:10 19.4 74 12.35 14.6 6 6 1014.1 0 27.3 30.4 52.1 137.2 140.7 486.9
07/05 21:00 19.6 73 12.32 14.6 4 7 1014 0 27.2 30.3 51.8 136.5 139.9 484.2
07/05 20:50 20 72 12.44 14.8 2 7 1014 0 27.4 30.3 52.0 137.2 140.8 487.5
07/05 20:40 20.1 71 12.34 14.7 0 0 1014.1 0 27.2 30.1 51.6 135.9 139.2 482.1
07/05 20:30 20.3 71 12.49 14.9 0 0 1013.8 0 27.5 30.3 52.0 137.2 140.9 487.9
07/05 20:20 20.3 71 12.49 14.9 0 0 1013.9 0 27.5 30.3 52.0 137.2 140.9 488.0
07/05 20:10 20.6 70 12.53 14.9 0 0 1013.8 0 27.6 30.3 52.0 137.1 140.9 488.0

Last Refresh: 08-May-2026 12:10:13

Bureau of Meteorology